Terminal Aerodrome Forecast
Issued by NWS Detroit/Pontiac, MI

Home | Current Version | Previous Version | Text Only | Print | Product List | Glossary On
Versions: 1 2 3 4 5 6 7 8 9 10 11 12 13 14 15 16 17 18 19 20 21 22 23 24
000
FTUS43 KDTX 050520
TAFDTW
TAF
KDTW 050520Z 0506/0612 29012G20KT P6SM SCT120 BKN200
     FM050700 32010KT P6SM BKN200
     FM051600 30008KT P6SM SCT030
     FM060100 VRB03KT P6SM FEW030=

USA.gov is the U.S. government's official web portal to all federal, state and local government web resources and services.